createdAt,value
2023-03-20T00:00:22.902Z,8.800
2023-03-20T00:01:26.037Z,8.800
2023-03-20T00:03:16.429Z,8.700
2023-03-20T00:04:51.038Z,8.700
2023-03-20T00:05:24.393Z,8.700
2023-03-20T00:06:36.764Z,8.700
2023-03-20T00:07:27.409Z,8.700
2023-03-20T00:08:40.348Z,8.700
2023-03-20T00:09:32.077Z,8.700
2023-03-20T00:11:01.293Z,8.700
2023-03-20T00:11:33.926Z,8.700
2023-03-20T00:12:47.717Z,8.700
2023-03-20T00:13:39.574Z,8.700
2023-03-20T00:14:31.289Z,8.700
2023-03-20T00:15:22.481Z,8.700
2023-03-20T00:16:25.609Z,8.700
2023-03-20T00:17:20.560Z,8.700
2023-03-20T00:18:51.583Z,8.700
2023-03-20T00:19:48.877Z,8.600
2023-03-20T00:20:42.224Z,8.600
2023-03-20T00:21:35.892Z,8.600
2023-03-20T00:22:29.681Z,8.600
2023-03-20T00:23:21.876Z,8.600
2023-03-20T00:24:24.936Z,8.600
2023-03-20T00:26:01.326Z,8.600
2023-03-20T00:26:53.776Z,8.600
2023-03-20T00:27:20.148Z,8.600
2023-03-20T00:28:39.414Z,8.600
2023-03-20T00:30:24.833Z,8.600
2023-03-20T00:31:27.546Z,8.600
2023-03-20T00:32:20.759Z,8.500
2023-03-20T00:33:25.147Z,8.500
2023-03-20T00:34:40.200Z,8.500
2023-03-20T00:35:44.135Z,8.600
2023-03-20T00:36:37.742Z,8.500
2023-03-20T00:37:30.444Z,8.500
2023-03-20T00:38:21.640Z,8.500
2023-03-20T00:39:25.048Z,8.500
2023-03-20T00:40:44.843Z,8.500
2023-03-20T00:41:57.782Z,8.500
2023-03-20T00:42:48.070Z,8.500
2023-03-20T00:43:40.764Z,8.500
2023-03-20T00:44:22.997Z,8.500
2023-03-20T00:45:27.289Z,8.500
2023-03-20T00:46:28.849Z,8.500
2023-03-20T00:47:21.735Z,8.500
2023-03-20T00:48:58.806Z,8.500
2023-03-20T00:49:52.316Z,8.500
2023-03-20T00:50:28.075Z,8.500
2023-03-20T00:51:37.390Z,8.400
2023-03-20T00:52:30.302Z,8.500
2023-03-20T00:53:23.633Z,8.500
2023-03-20T00:54:25.111Z,8.500
2023-03-20T00:56:03.454Z,8.500
2023-03-20T00:56:33.642Z,8.500
2023-03-20T00:57:49.953Z,8.400
2023-03-20T00:59:36.305Z,8.400
2023-03-20T01:00:26.877Z,8.400
2023-03-20T01:01:21.844Z,8.400
2023-03-20T01:02:22.914Z,8.400
2023-03-20T01:03:51.202Z,8.400
2023-03-20T01:04:53.053Z,8.400
2023-03-20T01:05:45.736Z,8.400
2023-03-20T01:06:37.864Z,8.400
2023-03-20T01:07:32.705Z,8.400
2023-03-20T01:09:26.364Z,8.400
2023-03-20T01:10:20.265Z,8.400
2023-03-20T01:11:57.685Z,8.400
2023-03-20T01:12:21.196Z,8.400
2023-03-20T01:13:44.071Z,8.400
2023-03-20T01:14:37.177Z,8.400
2023-03-20T01:15:29.582Z,8.400
2023-03-20T01:16:21.238Z,8.400
2023-03-20T01:17:23.573Z,8.400
2023-03-20T01:18:26.151Z,8.400
2023-03-20T01:19:40.652Z,8.400
2023-03-20T01:20:47.457Z,8.400
2023-03-20T01:21:41.371Z,8.400
2023-03-20T01:22:35.930Z,8.400
2023-03-20T01:23:27.254Z,8.400
2023-03-20T01:24:27.872Z,8.400
2023-03-20T01:25:20.815Z,8.400
2023-03-20T01:26:59.040Z,8.400
2023-03-20T01:28:45.005Z,8.400
2023-03-20T01:29:24.752Z,8.400
2023-03-20T01:30:30.791Z,8.400
2023-03-20T01:31:24.556Z,8.400
2023-03-20T01:32:24.543Z,8.400
2023-03-20T01:34:02.766Z,8.400
2023-03-20T01:34:56.648Z,8.400
2023-03-20T01:35:29.437Z,8.400
2023-03-20T01:36:42.556Z,8.400
2023-03-20T01:37:35.436Z,8.400
2023-03-20T01:38:28.621Z,8.400
2023-03-20T01:39:19.391Z,8.400
2023-03-20T01:40:22.087Z,8.400
2023-03-20T01:41:34.140Z,8.400
2023-03-20T01:42:47.457Z,8.400
2023-03-20T01:43:46.164Z,8.400
2023-03-20T01:44:39.378Z,8.400
2023-03-20T01:45:31.659Z,8.400
2023-03-20T01:46:26.360Z,8.400
2023-03-20T01:48:53.214Z,8.400
2023-03-20T01:49:58.112Z,8.400
2023-03-20T01:50:50.733Z,8.300
2023-03-20T01:51:42.386Z,8.300
2023-03-20T01:52:44.711Z,8.300
2023-03-20T01:54:23.330Z,8.300
2023-03-20T01:55:22.546Z,8.300
2023-03-20T01:57:01.809Z,8.300
2023-03-20T01:57:54.875Z,8.300
2023-03-20T01:58:47.310Z,8.300
2023-03-20T01:59:41.437Z,8.200
2023-03-20T02:00:37.157Z,8.200
2023-03-20T02:01:27.853Z,8.200
2023-03-20T02:08:30.384Z,8.100
2023-03-20T02:09:24.325Z,8.100
2023-03-20T02:10:24.957Z,8.100
2023-03-20T02:17:24.465Z,7.900
2023-03-20T02:18:37.679Z,7.900
2023-03-20T02:20:03.982Z,7.900
2023-03-20T02:20:29.066Z,7.850
2023-03-20T02:21:47.431Z,7.800
2023-03-20T02:24:24.915Z,7.800
2023-03-20T02:25:24.403Z,7.800
2023-03-20T02:26:34.618Z,7.700
2023-03-20T02:27:50.210Z,7.650
2023-03-20T02:29:43.406Z,7.600
2023-03-20T02:30:35.682Z,7.600
2023-03-20T02:31:30.127Z,7.600
2023-03-20T02:32:23.095Z,7.600
2023-03-20T02:33:21.701Z,7.600
2023-03-20T02:35:01.575Z,7.500
2023-03-20T02:35:54.943Z,7.500
2023-03-20T02:36:47.525Z,7.500
2023-03-20T02:37:32.562Z,7.500
2023-03-20T02:38:35.735Z,7.500
2023-03-20T02:39:26.629Z,7.400
2023-03-20T02:40:25.762Z,7.400
2023-03-20T02:42:05.782Z,7.400
2023-03-20T02:42:22.901Z,7.350
2023-03-20T02:43:37.445Z,7.300
2023-03-20T02:44:45.470Z,7.300
2023-03-20T02:45:38.515Z,7.300
2023-03-20T02:46:31.943Z,7.400
2023-03-20T02:47:22.814Z,7.400
2023-03-20T02:48:23.741Z,7.400
2023-03-20T02:50:03.181Z,7.400
2023-03-20T02:50:55.781Z,7.350
2023-03-20T02:52:42.582Z,7.400
2023-03-20T02:53:21.942Z,7.400
2023-03-20T02:54:28.357Z,7.400
2023-03-20T02:55:20.526Z,7.400
2023-03-20T02:56:19.720Z,7.400
2023-03-20T02:58:01.615Z,7.400
2023-03-20T02:58:53.510Z,7.400
2023-03-20T02:59:26.787Z,7.400
2023-03-20T03:00:46.245Z,7.400
2023-03-20T03:03:23.673Z,7.400
2023-03-20T03:05:04.542Z,7.400
2023-03-20T03:05:29.662Z,7.400
2023-03-20T03:06:43.943Z,7.300
2023-03-20T03:07:49.930Z,7.300
2023-03-20T03:11:20.725Z,7.300
2023-03-20T03:12:49.602Z,7.300
2023-03-20T03:13:54.873Z,7.300
2023-03-20T03:14:48.539Z,7.300
2023-03-20T03:15:40.511Z,7.400
2023-03-20T03:16:29.181Z,7.400
2023-03-20T03:17:27.295Z,7.400
2023-03-20T03:18:19.961Z,7.400
2023-03-20T03:20:07.241Z,7.500
2023-03-20T03:20:25.972Z,7.500
2023-03-20T03:21:22.124Z,7.400
2023-03-20T03:22:33.279Z,7.400
2023-03-20T03:23:37.936Z,7.400
2023-03-20T03:24:39.183Z,7.400
2023-03-20T03:25:22.738Z,7.500
2023-03-20T03:26:21.994Z,7.500
2023-03-20T03:27:23.801Z,7.500
2023-03-20T03:28:39.402Z,7.500
2023-03-20T03:29:51.791Z,7.500
2023-03-20T03:31:37.488Z,7.500
2023-03-20T03:32:27.039Z,7.500
2023-03-20T03:33:21.384Z,7.500
2023-03-20T03:34:42.113Z,7.500
2023-03-20T03:35:57.385Z,7.500
2023-03-20T03:36:53.441Z,7.500
2023-03-20T03:37:46.386Z,7.500
2023-03-20T03:38:22.094Z,7.500
2023-03-20T03:39:32.006Z,7.500
2023-03-20T03:40:24.981Z,7.500
2023-03-20T03:41:22.726Z,7.500
2023-03-20T03:43:05.203Z,7.500
2023-03-20T03:43:57.822Z,7.500
2023-03-20T03:44:25.790Z,7.500
2023-03-20T03:45:41.019Z,7.600
2023-03-20T03:46:36.798Z,7.600
2023-03-20T03:47:29.764Z,7.500
2023-03-20T03:48:20.795Z,7.600
2023-03-20T03:49:22.389Z,7.500
2023-03-20T03:50:32.602Z,7.600
2023-03-20T03:51:46.009Z,7.600
2023-03-20T03:52:47.005Z,7.600
2023-03-20T03:53:40.887Z,7.500
2023-03-20T03:54:34.723Z,7.500
2023-03-20T03:55:26.206Z,7.500
2023-03-20T03:57:49.761Z,7.500
2023-03-20T03:58:59.024Z,7.550
2023-03-20T03:59:52.048Z,7.500
2023-03-20T04:00:44.556Z,7.500
2023-03-20T04:01:29.812Z,7.500
2023-03-20T04:02:30.892Z,7.500
2023-03-20T04:03:24.863Z,7.500
2023-03-20T04:04:21.056Z,7.500
2023-03-20T04:06:04.629Z,7.500
2023-03-20T04:06:20.316Z,7.400
2023-03-20T04:07:37.223Z,7.400
2023-03-20T04:08:42.455Z,7.400
2023-03-20T04:09:36.800Z,7.400
2023-03-20T04:10:27.951Z,7.400
2023-03-20T04:11:20.535Z,7.400
2023-03-20T04:12:24.860Z,7.300
2023-03-20T04:13:38.909Z,7.300
2023-03-20T04:14:53.039Z,7.300
2023-03-20T04:16:40.755Z,7.300
2023-03-20T04:17:30.753Z,7.300
2023-03-20T04:18:25.777Z,7.300
2023-03-20T04:19:22.080Z,7.300
2023-03-20T04:20:57.406Z,7.300
2023-03-20T04:21:57.815Z,7.200
2023-03-20T04:22:50.409Z,7.200
2023-03-20T04:23:23.256Z,7.200
2023-03-20T04:24:42.138Z,7.100
2023-03-20T04:26:22.416Z,7.100
2023-03-20T04:28:09.290Z,7.100
2023-03-20T04:29:26.834Z,7.100
2023-03-20T04:30:41.723Z,7.000
2023-03-20T04:31:40.756Z,7.000
2023-03-20T04:32:37.914Z,7.000
2023-03-20T04:34:22.982Z,7.000
2023-03-20T04:35:35.233Z,7.000
2023-03-20T04:36:30.447Z,6.900
2023-03-20T04:37:52.282Z,6.800
2023-03-20T04:38:44.590Z,6.800
2023-03-20T04:39:37.011Z,6.800
2023-03-20T04:40:25.371Z,6.700
2023-03-20T04:41:22.054Z,6.700
2023-03-20T04:42:21.240Z,6.700
2023-03-20T04:43:59.585Z,6.700
2023-03-20T04:44:26.067Z,6.700
2023-03-20T04:45:39.178Z,6.800
2023-03-20T04:46:29.290Z,6.800
2023-03-20T04:47:28.668Z,6.700
2023-03-20T04:48:27.366Z,6.700
2023-03-20T04:49:19.757Z,6.700
2023-03-20T04:50:31.672Z,6.700
2023-03-20T04:51:20.809Z,6.700
2023-03-20T04:52:38.188Z,6.700
2023-03-20T04:53:50.401Z,6.700
2023-03-20T04:54:29.813Z,6.700
2023-03-20T04:55:32.931Z,6.700
2023-03-20T04:56:20.234Z,6.700
2023-03-20T04:57:22.470Z,6.700
2023-03-20T04:58:38.967Z,6.700
2023-03-20T04:59:53.695Z,6.700
2023-03-20T05:00:50.913Z,6.700
2023-03-20T05:01:44.745Z,6.800
2023-03-20T05:02:35.103Z,6.800
2023-03-20T05:03:33.510Z,6.800
2023-03-20T05:04:22.986Z,6.800
2023-03-20T05:05:57.728Z,6.800
2023-03-20T05:07:01.713Z,6.800
2023-03-20T05:07:55.078Z,6.800
2023-03-20T05:08:22.958Z,6.800
2023-03-20T05:09:37.174Z,6.800
2023-03-20T05:10:34.696Z,6.800
2023-03-20T05:11:28.081Z,6.800
2023-03-20T05:12:21.982Z,6.800
2023-03-20T05:14:09.339Z,6.800
2023-03-20T05:15:42.146Z,6.900
2023-03-20T05:16:45.179Z,6.900
2023-03-20T05:17:38.351Z,6.900
2023-03-20T05:18:29.490Z,6.900
2023-03-20T05:19:23.862Z,6.900
2023-03-20T05:20:33.953Z,6.900
2023-03-20T05:21:47.388Z,6.900
2023-03-20T05:22:58.947Z,6.850
2023-03-20T05:23:52.213Z,6.800
2023-03-20T05:24:45.163Z,6.800
2023-03-20T05:25:26.122Z,6.800
2023-03-20T05:26:31.137Z,6.800
2023-03-20T05:27:21.399Z,6.800
2023-03-20T05:29:09.977Z,6.800
2023-03-20T05:30:02.792Z,6.800
2023-03-20T05:30:55.882Z,6.800
2023-03-20T05:31:31.201Z,6.800
2023-03-20T05:32:45.050Z,6.800
2023-03-20T05:33:38.324Z,6.800
2023-03-20T05:34:29.533Z,6.800
2023-03-20T05:35:20.474Z,6.800
2023-03-20T05:36:21.817Z,6.800
2023-03-20T05:37:35.753Z,6.800
2023-03-20T05:38:53.599Z,6.800
2023-03-20T05:40:26.523Z,6.700
2023-03-20T05:41:31.341Z,6.700
2023-03-20T05:42:25.519Z,6.700
2023-03-20T05:43:39.966Z,6.700
2023-03-20T05:44:53.916Z,6.700
2023-03-20T05:45:57.355Z,6.700
2023-03-20T05:46:50.016Z,6.700
2023-03-20T05:47:42.878Z,6.700
2023-03-20T05:48:37.879Z,6.700
2023-03-20T05:50:21.413Z,6.600
2023-03-20T05:52:08.840Z,6.600
2023-03-20T05:52:50.044Z,6.500
2023-03-20T05:53:25.571Z,6.500
2023-03-20T05:54:36.544Z,6.500
2023-03-20T05:55:24.243Z,6.500
2023-03-20T05:56:33.430Z,6.500
2023-03-20T05:57:24.719Z,6.500
2023-03-20T05:58:24.815Z,6.400
2023-03-20T05:59:29.007Z,6.400
2023-03-20T06:00:41.778Z,6.450
2023-03-20T06:01:41.981Z,6.500
2023-03-20T06:02:38.214Z,6.500
2023-03-20T06:03:33.591Z,6.500
2023-03-20T06:04:20.866Z,6.500
2023-03-20T06:05:21.580Z,6.500
2023-03-20T06:06:20.813Z,6.500
2023-03-20T06:07:46.487Z,6.500
2023-03-20T06:08:54.694Z,6.500
2023-03-20T06:09:47.543Z,6.500
2023-03-20T06:10:25.513Z,6.600
2023-03-20T06:12:26.917Z,6.600
2023-03-20T06:13:22.186Z,6.500
2023-03-20T06:15:07.112Z,6.500
2023-03-20T06:15:59.271Z,6.500
2023-03-20T06:17:43.656Z,6.600
2023-03-20T06:18:37.708Z,6.600
2023-03-20T06:19:30.655Z,6.500
2023-03-20T06:20:22.791Z,6.500
2023-03-20T06:21:23.455Z,6.500
2023-03-20T06:23:03.920Z,6.500
2023-03-20T06:23:50.603Z,6.500
2023-03-20T06:24:49.821Z,6.500
2023-03-20T06:25:42.530Z,6.600
2023-03-20T06:26:35.522Z,6.600
2023-03-20T06:27:29.105Z,6.600
2023-03-20T06:28:21.111Z,6.700
2023-03-20T06:29:54.379Z,6.700
2023-03-20T06:31:00.668Z,6.700
2023-03-20T06:31:52.872Z,6.700
2023-03-20T06:32:19.744Z,6.700
2023-03-20T06:33:33.948Z,6.700
2023-03-20T06:34:32.101Z,6.700
2023-03-20T06:35:25.026Z,6.800
2023-03-20T06:37:12.829Z,6.800
2023-03-20T06:38:24.660Z,6.800
2023-03-20T06:39:39.348Z,6.800
2023-03-20T06:40:43.957Z,6.800
2023-03-20T06:41:38.747Z,6.800
2023-03-20T06:42:29.197Z,6.800
2023-03-20T06:43:21.447Z,6.800
2023-03-20T06:44:29.941Z,6.800
2023-03-20T06:45:44.287Z,6.800
2023-03-20T06:46:54.335Z,6.800
2023-03-20T06:47:46.815Z,6.800
2023-03-20T06:48:38.112Z,6.800
2023-03-20T06:49:23.994Z,6.800
2023-03-20T06:50:26.841Z,6.800
2023-03-20T06:51:47.861Z,6.800
2023-03-20T06:53:05.851Z,6.900
2023-03-20T06:53:28.690Z,6.900
2023-03-20T06:54:24.143Z,6.900
2023-03-20T06:55:20.745Z,6.900
2023-03-20T06:56:30.400Z,6.900
2023-03-20T06:57:28.374Z,6.900
2023-03-20T06:58:22.043Z,6.900
2023-03-20T07:00:09.167Z,7.000
2023-03-20T07:24:39.648Z,7.600
2023-03-20T07:25:46.591Z,7.600
2023-03-20T07:30:45.194Z,7.700
2023-03-20T07:31:31.873Z,7.700
2023-03-20T07:32:51.295Z,7.800
2023-03-20T07:35:30.006Z,7.900
2023-03-20T07:39:01.847Z,7.900
2023-03-20T07:39:54.814Z,8.000
2023-03-20T07:41:43.222Z,8.000
2023-03-20T07:45:21.301Z,8.200
2023-03-20T07:46:36.923Z,8.200
2023-03-20T07:47:22.458Z,8.200
2023-03-20T07:49:28.218Z,8.200
2023-03-20T07:50:30.112Z,8.200
2023-03-20T07:53:26.506Z,8.300
2023-03-20T07:54:23.951Z,8.300
2023-03-20T07:55:34.552Z,8.400
2023-03-20T07:56:28.485Z,8.400
2023-03-20T07:57:35.944Z,8.400
2023-03-20T07:59:21.639Z,8.500
2023-03-20T08:00:42.372Z,8.500
2023-03-20T08:01:37.960Z,8.500
2023-03-20T08:02:23.273Z,8.500
2023-03-20T08:03:30.373Z,8.600
2023-03-20T08:04:38.373Z,8.600
2023-03-20T08:08:22.208Z,8.700
2023-03-20T08:09:36.947Z,8.700
2023-03-20T08:10:42.505Z,8.700
2023-03-20T08:11:26.167Z,8.800
2023-03-20T08:12:21.285Z,8.800
2023-03-20T08:16:34.547Z,8.800
2023-03-20T08:17:28.190Z,8.900
2023-03-20T08:18:26.473Z,8.900
2023-03-20T08:19:20.527Z,8.900
2023-03-20T08:20:36.258Z,8.900
2023-03-20T08:23:36.059Z,8.900
2023-03-20T08:24:28.788Z,8.800
2023-03-20T08:25:25.910Z,8.900
2023-03-20T08:26:20.211Z,8.900
2023-03-20T08:27:30.673Z,8.900
2023-03-20T08:28:46.192Z,8.900
2023-03-20T08:31:29.468Z,8.900
2023-03-20T08:32:38.601Z,8.900
2023-03-20T08:33:21.390Z,9.000
2023-03-20T08:34:30.343Z,9.000
2023-03-20T08:35:33.192Z,9.000
2023-03-20T08:36:27.203Z,9.000
2023-03-20T08:38:28.761Z,9.000
2023-03-20T08:39:26.011Z,9.000
2023-03-20T08:40:20.070Z,9.000
2023-03-20T08:41:30.325Z,9.100
2023-03-20T08:42:31.897Z,9.100
2023-03-20T08:43:30.506Z,9.100
2023-03-20T08:46:24.474Z,9.100
2023-03-20T08:47:22.518Z,9.200
2023-03-20T08:48:30.184Z,9.200
2023-03-20T08:49:28.646Z,9.300
2023-03-20T08:50:23.650Z,9.300
2023-03-20T08:51:29.475Z,9.300
2023-03-20T08:53:28.789Z,9.300
2023-03-20T08:55:30.655Z,9.350
2023-03-20T08:56:28.283Z,9.400
2023-03-20T08:57:23.139Z,9.400
2023-03-20T08:58:21.230Z,9.400
2023-03-20T08:59:25.944Z,9.400
2023-03-20T09:01:22.123Z,9.400
2023-03-20T09:02:30.671Z,9.450
2023-03-20T09:03:42.268Z,9.500
2023-03-20T09:04:26.791Z,9.500
2023-03-20T09:05:40.111Z,9.600
2023-03-20T09:09:30.261Z,9.700
2023-03-20T09:10:27.988Z,9.750
2023-03-20T09:12:34.775Z,9.800
2023-03-20T09:13:31.833Z,9.900
2023-03-20T09:14:26.535Z,9.900
2023-03-20T09:17:28.203Z,10.100
2023-03-20T09:18:22.526Z,10.100
2023-03-20T09:19:35.397Z,10.100
2023-03-20T09:20:28.366Z,10.200
2023-03-20T09:21:27.631Z,10.200
2023-03-20T09:22:20.501Z,10.200
2023-03-20T09:23:30.823Z,10.200
2023-03-20T09:24:27.197Z,10.300
2023-03-20T09:25:22.493Z,10.300
2023-03-20T09:26:35.189Z,10.400
2023-03-20T09:27:31.547Z,10.400
2023-03-20T09:28:24.580Z,10.500
2023-03-20T09:29:20.571Z,10.500
2023-03-20T09:30:23.056Z,10.600
2023-03-20T09:31:26.400Z,10.500
2023-03-20T09:32:25.290Z,10.500
2023-03-20T09:33:34.389Z,10.600
2023-03-20T09:34:28.972Z,10.700
2023-03-20T09:35:24.675Z,10.700
2023-03-20T09:36:20.866Z,10.700
2023-03-20T09:37:21.881Z,10.700
2023-03-20T09:38:28.448Z,10.700
2023-03-20T09:39:22.539Z,10.700
2023-03-20T09:40:36.800Z,10.700
2023-03-20T09:41:30.526Z,10.700
2023-03-20T09:42:26.173Z,10.700
2023-03-20T09:43:20.804Z,10.700
2023-03-20T09:44:27.202Z,10.700
2023-03-20T09:45:22.813Z,10.800
2023-03-20T09:46:23.044Z,10.800
2023-03-20T09:47:36.290Z,10.800
2023-03-20T09:48:28.694Z,10.800
2023-03-20T09:49:27.275Z,10.700
2023-03-20T09:50:20.479Z,10.700
2023-03-20T09:51:30.432Z,10.700
2023-03-20T09:52:24.084Z,10.700
2023-03-20T09:53:19.637Z,10.700
2023-03-20T09:54:47.305Z,10.700
2023-03-20T09:55:32.147Z,10.700
2023-03-20T09:56:24.661Z,10.700
2023-03-20T09:57:22.143Z,10.700
2023-03-20T09:58:36.689Z,10.700
2023-03-20T09:59:26.948Z,10.700
2023-03-20T10:00:24.622Z,10.700
2023-03-20T10:02:29.181Z,10.700
2023-03-20T10:03:25.879Z,10.700
2023-03-20T10:04:22.128Z,10.700
2023-03-20T10:05:30.521Z,10.700
2023-03-20T10:06:31.937Z,10.700
2023-03-20T10:07:23.680Z,10.700
2023-03-20T10:08:23.514Z,10.800
2023-03-20T10:09:29.875Z,10.700
2023-03-20T10:10:24.598Z,10.700
2023-03-20T10:11:22.551Z,10.700
2023-03-20T10:12:36.234Z,10.800
2023-03-20T10:13:29.172Z,10.800
2023-03-20T10:14:23.811Z,10.800
2023-03-20T10:15:20.499Z,10.800
2023-03-20T10:16:28.592Z,10.800
2023-03-20T10:17:24.852Z,10.900
2023-03-20T10:18:22.470Z,10.900
2023-03-20T10:19:31.876Z,10.900
2023-03-20T10:21:23.726Z,11.000
2023-03-20T10:22:24.468Z,11.000
2023-03-20T10:23:22.515Z,10.900
2023-03-20T10:24:24.229Z,11.000
2023-03-20T10:25:20.616Z,11.000
2023-03-20T10:26:32.896Z,11.000
2023-03-20T10:27:28.416Z,11.000
2023-03-20T10:28:23.338Z,11.000
2023-03-20T10:29:29.252Z,11.000
2023-03-20T10:30:21.398Z,11.000
2023-03-20T10:31:21.670Z,11.000
2023-03-20T10:32:20.594Z,11.000
2023-03-20T10:33:31.357Z,11.000
2023-03-20T10:34:29.253Z,11.000
2023-03-20T10:35:22.621Z,11.100
2023-03-20T10:36:32.274Z,11.100
2023-03-20T10:37:28.020Z,11.200
2023-03-20T10:38:24.455Z,11.200
2023-03-20T10:39:20.893Z,11.200
2023-03-20T10:40:32.226Z,11.300
2023-03-20T10:41:26.706Z,11.300
2023-03-20T10:42:25.036Z,11.300
2023-03-20T10:43:40.224Z,11.300
2023-03-20T10:44:29.146Z,11.300
2023-03-20T10:45:25.594Z,11.300
2023-03-20T10:46:21.192Z,11.300
2023-03-20T10:48:26.874Z,11.300
2023-03-20T10:49:24.213Z,11.300
2023-03-20T10:50:35.874Z,11.300
2023-03-20T10:51:28.757Z,11.300
2023-03-20T10:52:26.934Z,11.300
2023-03-20T10:53:20.472Z,11.300
2023-03-20T10:54:32.592Z,11.300
2023-03-20T10:55:26.820Z,11.300
2023-03-20T10:56:24.435Z,11.300
2023-03-20T10:57:36.298Z,11.300
2023-03-20T10:58:28.384Z,11.300
2023-03-20T10:59:27.058Z,11.300
2023-03-20T11:00:23.618Z,11.300
2023-03-20T11:01:22.721Z,11.300
2023-03-20T11:02:26.684Z,11.300
2023-03-20T11:03:22.803Z,11.400
2023-03-20T11:04:35.419Z,11.400
2023-03-20T11:05:30.950Z,11.500
2023-03-20T11:06:24.744Z,11.500
2023-03-20T11:07:21.839Z,11.500
2023-03-20T11:08:20.576Z,11.600
2023-03-20T11:09:20.102Z,11.700
2023-03-20T11:10:25.343Z,11.700
2023-03-20T11:11:34.555Z,11.800
2023-03-20T11:12:28.586Z,11.800
2023-03-20T11:13:26.493Z,11.800
2023-03-20T11:14:20.782Z,11.700
2023-03-20T11:16:27.574Z,11.700
2023-03-20T11:17:22.771Z,11.700
2023-03-20T11:18:33.577Z,11.700
2023-03-20T11:19:29.373Z,11.700
2023-03-20T11:20:43.524Z,11.700
2023-03-20T11:21:22.643Z,11.700
2023-03-20T11:22:31.614Z,11.700
2023-03-20T11:23:21.360Z,11.700
2023-03-20T11:24:22.628Z,11.700
2023-03-20T11:25:33.596Z,11.700
2023-03-20T11:26:28.492Z,11.700
2023-03-20T11:27:27.411Z,11.800
2023-03-20T11:28:21.537Z,11.800
2023-03-20T11:29:35.069Z,11.800
2023-03-20T11:30:26.561Z,11.900
2023-03-20T11:31:26.075Z,12.000
2023-03-20T11:33:28.429Z,12.100
2023-03-20T11:34:25.766Z,12.100
2023-03-20T11:35:20.556Z,12.100
2023-03-20T11:36:30.943Z,12.100
2023-03-20T11:37:31.359Z,12.100
2023-03-20T11:38:22.580Z,12.100
2023-03-20T11:39:23.744Z,12.100
2023-03-20T11:40:29.223Z,12.100
2023-03-20T11:41:22.683Z,12.100
2023-03-20T11:42:21.213Z,12.200
2023-03-20T11:43:30.815Z,12.200
2023-03-20T11:44:27.990Z,12.200
2023-03-20T11:46:27.210Z,12.300
2023-03-20T11:47:21.851Z,12.300
2023-03-20T11:48:24.425Z,12.300
2023-03-20T11:49:22.501Z,12.400
2023-03-20T11:50:32.617Z,12.450
2023-03-20T11:51:26.927Z,12.500
2023-03-20T11:52:22.468Z,12.500
2023-03-20T11:53:24.919Z,12.500
2023-03-20T11:54:24.133Z,12.500
2023-03-20T11:55:24.939Z,12.600
2023-03-20T11:56:21.258Z,12.500
2023-03-20T11:57:30.815Z,12.550
2023-03-20T11:58:25.080Z,12.600
2023-03-20T11:59:22.965Z,12.700
2023-03-20T12:00:27.429Z,12.700
2023-03-20T12:01:22.473Z,12.700
2023-03-20T12:02:21.237Z,12.700
2023-03-20T12:03:20.561Z,12.700
2023-03-20T12:04:32.270Z,12.600
2023-03-20T12:05:26.780Z,12.600
2023-03-20T12:06:24.458Z,12.600
2023-03-20T12:07:34.821Z,12.500
2023-03-20T12:08:23.995Z,12.500
2023-03-20T12:09:22.007Z,12.500
2023-03-20T12:10:20.783Z,12.500
2023-03-20T12:11:30.379Z,12.500
2023-03-20T12:12:28.297Z,12.550
2023-03-20T12:13:24.393Z,12.500
2023-03-20T12:14:35.829Z,12.500
2023-03-20T12:15:25.028Z,12.500
2023-03-20T12:16:21.719Z,12.600
2023-03-20T12:17:22.536Z,12.600
2023-03-20T12:19:26.687Z,12.700
2023-03-20T12:20:23.526Z,12.850
2023-03-20T12:21:33.670Z,12.900
2023-03-20T12:22:28.651Z,13.000
2023-03-20T12:23:25.260Z,13.000
2023-03-20T12:24:20.856Z,13.000
2023-03-20T12:25:20.709Z,12.900
2023-03-20T12:26:21.954Z,13.000
2023-03-20T12:28:35.756Z,13.000
2023-03-20T12:29:28.554Z,13.000
2023-03-20T12:30:25.949Z,13.000
2023-03-20T12:31:22.687Z,13.000
2023-03-20T12:32:24.949Z,13.000
2023-03-20T12:33:26.604Z,13.000
2023-03-20T12:34:24.166Z,13.000
2023-03-20T12:35:37.153Z,13.000
2023-03-20T12:36:28.553Z,13.100
2023-03-20T12:37:24.804Z,13.100
2023-03-20T12:38:20.725Z,13.000
2023-03-20T12:40:23.353Z,13.100
2023-03-20T12:41:22.843Z,13.100
2023-03-20T12:42:32.902Z,13.000
2023-03-20T12:43:25.319Z,13.100
2023-03-20T12:44:24.644Z,13.100
2023-03-20T12:45:23.985Z,13.100
2023-03-20T12:46:24.294Z,13.200
2023-03-20T12:47:26.407Z,13.200
2023-03-20T12:48:22.569Z,13.200
2023-03-20T12:49:30.276Z,13.300
2023-03-20T12:50:28.964Z,13.300
2023-03-20T12:51:25.676Z,13.300
2023-03-20T12:52:21.250Z,13.300
2023-03-20T12:53:27.713Z,13.300
2023-03-20T12:54:22.650Z,13.300
2023-03-20T12:55:22.877Z,13.300
2023-03-20T12:56:32.803Z,13.400
2023-03-20T12:57:29.672Z,13.400
2023-03-20T12:58:24.508Z,13.400
2023-03-20T12:59:20.227Z,13.400
2023-03-20T13:00:28.031Z,13.400
2023-03-20T13:01:26.992Z,13.500
2023-03-20T13:02:22.600Z,13.500
2023-03-20T13:03:19.348Z,13.500
2023-03-20T13:04:28.836Z,13.500
2023-03-20T13:05:25.483Z,13.500
2023-03-20T13:06:22.309Z,13.500
2023-03-20T13:07:32.403Z,13.600
2023-03-20T13:09:22.661Z,13.500
2023-03-20T13:10:23.859Z,13.500
2023-03-20T13:11:23.261Z,13.500
2023-03-20T13:12:25.103Z,13.500
2023-03-20T13:13:21.805Z,13.500
2023-03-20T13:14:32.048Z,13.500
2023-03-20T13:15:26.766Z,13.600
2023-03-20T13:17:36.070Z,13.600
2023-03-20T13:19:24.824Z,13.600
2023-03-20T13:20:21.032Z,13.600
2023-03-20T13:21:30.652Z,13.650
2023-03-20T13:22:21.688Z,13.700
2023-03-20T13:23:23.156Z,13.700
2023-03-20T13:24:22.771Z,13.600
2023-03-20T13:25:24.976Z,13.600
2023-03-20T13:26:24.741Z,13.600
2023-03-20T13:27:20.630Z,13.600
2023-03-20T13:28:26.986Z,13.650
2023-03-20T13:29:27.847Z,13.700
2023-03-20T13:30:24.623Z,13.700
2023-03-20T13:31:26.377Z,13.700
2023-03-20T13:34:20.543Z,13.700
2023-03-20T13:35:31.681Z,13.600
2023-03-20T13:36:27.027Z,13.600
2023-03-20T13:37:24.939Z,13.600
2023-03-20T13:38:37.043Z,13.600
2023-03-20T13:39:23.281Z,13.700
2023-03-20T13:40:26.822Z,13.700
2023-03-20T13:42:32.325Z,13.700
2023-03-20T13:43:26.432Z,13.700
2023-03-20T13:44:22.764Z,13.750
2023-03-20T13:45:31.712Z,13.800
2023-03-20T13:46:28.584Z,13.800
2023-03-20T13:47:21.811Z,13.800
2023-03-20T13:48:21.420Z,13.800
2023-03-20T13:49:31.022Z,13.900
2023-03-20T13:50:26.875Z,13.900
2023-03-20T13:51:22.374Z,13.900
2023-03-20T13:52:34.571Z,13.900
2023-03-20T13:53:36.462Z,13.800
2023-03-20T13:54:24.516Z,13.800
2023-03-20T13:55:20.803Z,13.700
2023-03-20T13:56:21.072Z,13.700
2023-03-20T13:57:28.142Z,13.700
2023-03-20T13:58:22.596Z,13.700
2023-03-20T13:59:35.919Z,13.650
2023-03-20T14:00:29.042Z,13.600
2023-03-20T14:01:24.549Z,13.600
2023-03-20T14:02:21.750Z,13.600
2023-03-20T14:03:24.831Z,13.600
2023-03-20T14:04:26.894Z,13.600
2023-03-20T14:05:23.307Z,13.700
2023-03-20T14:06:33.716Z,13.700
2023-03-20T14:07:22.866Z,13.700
2023-03-20T14:08:24.785Z,13.700
2023-03-20T14:09:21.218Z,13.700
2023-03-20T14:10:32.148Z,13.700
2023-03-20T14:11:22.279Z,13.700
2023-03-20T14:12:22.585Z,13.700
2023-03-20T14:13:27.964Z,13.800
2023-03-20T14:14:30.845Z,13.900
2023-03-20T14:15:25.646Z,13.900
2023-03-20T14:16:22.055Z,14.000
2023-03-20T14:17:22.276Z,13.900
2023-03-20T14:18:40.612Z,14.000
2023-03-20T14:20:36.696Z,14.000
2023-03-20T14:21:29.556Z,14.000
2023-03-20T14:22:26.418Z,14.000
2023-03-20T14:24:22.596Z,14.000
2023-03-20T14:25:26.857Z,14.000
2023-03-20T14:26:23.951Z,14.000
2023-03-20T14:28:28.838Z,14.000
2023-03-20T14:29:24.569Z,14.000
2023-03-20T14:30:21.004Z,14.100
2023-03-20T14:31:30.473Z,14.100
2023-03-20T14:32:25.154Z,14.000
2023-03-20T14:33:24.653Z,14.000
2023-03-20T14:34:22.597Z,14.000
2023-03-20T14:35:23.277Z,14.000
2023-03-20T14:36:25.393Z,14.000
2023-03-20T14:37:23.049Z,13.950
2023-03-20T14:38:31.164Z,13.900
2023-03-20T14:39:27.671Z,13.800
2023-03-20T14:40:22.982Z,13.800
2023-03-20T14:41:27.036Z,13.700
2023-03-20T14:43:24.816Z,13.700